sensor_id;sensor_type;location;lat;lon;timestamp;P1;durP1;ratioP1;P2;durP2;ratioP2
16272;SDS011;8244;50.044;9.006;2023-04-29T00:03:13;5.05;;;3.10;;
16272;SDS011;8244;50.044;9.006;2023-04-29T00:08:16;4.40;;;2.70;;
16272;SDS011;8244;50.044;9.006;2023-04-29T00:13:17;3.08;;;2.60;;
16272;SDS011;8244;50.044;9.006;2023-04-29T00:18:20;3.67;;;2.72;;
16272;SDS011;8244;50.044;9.006;2023-04-29T00:23:23;3.63;;;2.50;;
16272;SDS011;8244;50.044;9.006;2023-04-29T00:28:24;3.47;;;2.60;;
16272;SDS011;8244;50.044;9.006;2023-04-29T00:33:26;4.80;;;3.00;;
16272;SDS011;8244;50.044;9.006;2023-04-29T00:38:29;3.72;;;2.67;;
16272;SDS011;8244;50.044;9.006;2023-04-29T00:43:31;4.78;;;2.75;;
16272;SDS011;8244;50.044;9.006;2023-04-29T00:48:32;4.82;;;2.63;;
16272;SDS011;8244;50.044;9.006;2023-04-29T00:53:35;3.10;;;2.50;;
16272;SDS011;8244;50.044;9.006;2023-04-29T00:58:37;6.78;;;2.97;;
16272;SDS011;8244;50.044;9.006;2023-04-29T01:03:39;5.35;;;3.30;;
16272;SDS011;8244;50.044;9.006;2023-04-29T01:08:47;6.20;;;3.15;;
16272;SDS011;8244;50.044;9.006;2023-04-29T01:14:01;4.85;;;3.10;;
16272;SDS011;8244;50.044;9.006;2023-04-29T01:19:07;4.55;;;3.50;;
16272;SDS011;8244;50.044;9.006;2023-04-29T01:24:21;5.65;;;3.22;;
16272;SDS011;8244;50.044;9.006;2023-04-29T01:29:25;3.97;;;2.70;;
16272;SDS011;8244;50.044;9.006;2023-04-29T01:34:34;4.13;;;2.83;;
16272;SDS011;8244;50.044;9.006;2023-04-29T01:39:55;5.63;;;3.08;;
16272;SDS011;8244;50.044;9.006;2023-04-29T01:45:06;7.97;;;3.65;;
16272;SDS011;8244;50.044;9.006;2023-04-29T01:50:10;4.72;;;3.60;;
16272;SDS011;8244;50.044;9.006;2023-04-29T01:55:13;9.65;;;4.15;;
16272;SDS011;8244;50.044;9.006;2023-04-29T02:00:15;5.00;;;3.83;;
16272;SDS011;8244;50.044;9.006;2023-04-29T02:05:17;3.85;;;3.45;;
16272;SDS011;8244;50.044;9.006;2023-04-29T02:10:20;6.65;;;3.50;;
16272;SDS011;8244;50.044;9.006;2023-04-29T02:15:21;5.85;;;3.95;;
16272;SDS011;8244;50.044;9.006;2023-04-29T02:20:26;5.75;;;4.18;;
16272;SDS011;8244;50.044;9.006;2023-04-29T02:25:29;5.03;;;3.70;;
16272;SDS011;8244;50.044;9.006;2023-04-29T02:30:30;6.07;;;3.40;;
16272;SDS011;8244;50.044;9.006;2023-04-29T02:35:32;4.88;;;3.42;;
16272;SDS011;8244;50.044;9.006;2023-04-29T02:40:35;4.22;;;3.20;;
16272;SDS011;8244;50.044;9.006;2023-04-29T02:45:41;3.92;;;2.97;;
16272;SDS011;8244;50.044;9.006;2023-04-29T02:50:43;6.18;;;3.60;;
16272;SDS011;8244;50.044;9.006;2023-04-29T02:55:47;4.43;;;3.63;;
16272;SDS011;8244;50.044;9.006;2023-04-29T03:00:48;4.40;;;3.20;;
16272;SDS011;8244;50.044;9.006;2023-04-29T03:05:50;6.63;;;3.90;;
16272;SDS011;8244;50.044;9.006;2023-04-29T03:10:53;5.18;;;3.15;;
16272;SDS011;8244;50.044;9.006;2023-04-29T03:15:55;4.18;;;3.22;;
16272;SDS011;8244;50.044;9.006;2023-04-29T03:20:57;4.40;;;3.40;;
16272;SDS011;8244;50.044;9.006;2023-04-29T03:26:00;4.75;;;3.55;;
16272;SDS011;8244;50.044;9.006;2023-04-29T03:31:02;4.85;;;3.58;;
16272;SDS011;8244;50.044;9.006;2023-04-29T03:36:04;6.00;;;3.10;;
16272;SDS011;8244;50.044;9.006;2023-04-29T03:41:07;5.10;;;4.03;;
16272;SDS011;8244;50.044;9.006;2023-04-29T03:46:09;3.45;;;3.08;;
16272;SDS011;8244;50.044;9.006;2023-04-29T03:51:11;18.80;;;4.53;;
16272;SDS011;8244;50.044;9.006;2023-04-29T03:56:14;4.90;;;3.15;;
16272;SDS011;8244;50.044;9.006;2023-04-29T04:01:16;5.45;;;3.55;;
16272;SDS011;8244;50.044;9.006;2023-04-29T04:06:18;6.50;;;4.13;;
16272;SDS011;8244;50.044;9.006;2023-04-29T04:11:21;5.45;;;3.60;;
16272;SDS011;8244;50.044;9.006;2023-04-29T04:16:23;6.35;;;4.07;;
16272;SDS011;8244;50.044;9.006;2023-04-29T04:21:24;4.75;;;4.13;;
16272;SDS011;8244;50.044;9.006;2023-04-29T04:26:27;6.55;;;4.97;;
16272;SDS011;8244;50.044;9.006;2023-04-29T04:31:29;9.68;;;6.68;;
16272;SDS011;8244;50.044;9.006;2023-04-29T04:36:31;11.38;;;7.35;;
16272;SDS011;8244;50.044;9.006;2023-04-29T04:41:34;10.77;;;8.25;;
16272;SDS011;8244;50.044;9.006;2023-04-29T04:46:35;11.20;;;8.20;;
16272;SDS011;8244;50.044;9.006;2023-04-29T04:51:37;12.18;;;9.13;;
16272;SDS011;8244;50.044;9.006;2023-04-29T04:56:40;12.93;;;9.63;;
16272;SDS011;8244;50.044;9.006;2023-04-29T05:01:42;11.60;;;8.50;;
16272;SDS011;8244;50.044;9.006;2023-04-29T05:06:43;13.57;;;7.60;;
16272;SDS011;8244;50.044;9.006;2023-04-29T05:11:47;11.77;;;8.20;;
16272;SDS011;8244;50.044;9.006;2023-04-29T05:16:48;10.77;;;7.90;;
16272;SDS011;8244;50.044;9.006;2023-04-29T05:21:51;12.35;;;9.30;;
16272;SDS011;8244;50.044;9.006;2023-04-29T05:26:54;12.75;;;9.43;;
16272;SDS011;8244;50.044;9.006;2023-04-29T05:31:56;14.45;;;10.05;;
16272;SDS011;8244;50.044;9.006;2023-04-29T05:36:58;14.48;;;10.75;;
16272;SDS011;8244;50.044;9.006;2023-04-29T05:42:01;15.02;;;9.82;;
16272;SDS011;8244;50.044;9.006;2023-04-29T05:47:03;15.85;;;10.40;;
16272;SDS011;8244;50.044;9.006;2023-04-29T05:52:05;16.17;;;9.77;;
16272;SDS011;8244;50.044;9.006;2023-04-29T05:57:08;14.40;;;10.05;;
16272;SDS011;8244;50.044;9.006;2023-04-29T06:02:10;13.57;;;9.55;;
16272;SDS011;8244;50.044;9.006;2023-04-29T06:07:12;12.00;;;8.63;;
16272;SDS011;8244;50.044;9.006;2023-04-29T06:12:15;12.00;;;8.57;;
16272;SDS011;8244;50.044;9.006;2023-04-29T06:17:17;12.05;;;8.50;;
16272;SDS011;8244;50.044;9.006;2023-04-29T06:22:18;12.65;;;7.80;;
16272;SDS011;8244;50.044;9.006;2023-04-29T06:27:22;13.25;;;7.85;;
16272;SDS011;8244;50.044;9.006;2023-04-29T06:32:24;12.13;;;7.15;;
16272;SDS011;8244;50.044;9.006;2023-04-29T06:37:25;9.73;;;6.55;;
16272;SDS011;8244;50.044;9.006;2023-04-29T06:42:29;10.50;;;6.18;;
16272;SDS011;8244;50.044;9.006;2023-04-29T06:47:31;8.32;;;5.43;;
16272;SDS011;8244;50.044;9.006;2023-04-29T06:52:32;7.32;;;4.80;;
16272;SDS011;8244;50.044;9.006;2023-04-29T06:57:35;8.10;;;4.88;;
16272;SDS011;8244;50.044;9.006;2023-04-29T07:02:37;5.90;;;4.30;;
16272;SDS011;8244;50.044;9.006;2023-04-29T07:07:39;6.15;;;4.60;;
16272;SDS011;8244;50.044;9.006;2023-04-29T07:12:42;6.47;;;4.38;;
16272;SDS011;8244;50.044;9.006;2023-04-29T07:17:43;6.43;;;4.18;;
16272;SDS011;8244;50.044;9.006;2023-04-29T07:22:45;5.60;;;4.03;;
16272;SDS011;8244;50.044;9.006;2023-04-29T07:27:48;6.88;;;4.40;;
16272;SDS011;8244;50.044;9.006;2023-04-29T07:32:49;6.35;;;4.35;;
16272;SDS011;8244;50.044;9.006;2023-04-29T07:37:51;6.25;;;4.10;;
16272;SDS011;8244;50.044;9.006;2023-04-29T07:42:54;6.18;;;4.20;;
16272;SDS011;8244;50.044;9.006;2023-04-29T07:47:56;7.15;;;4.95;;
16272;SDS011;8244;50.044;9.006;2023-04-29T07:52:57;8.30;;;5.38;;
16272;SDS011;8244;50.044;9.006;2023-04-29T07:58:02;7.63;;;5.22;;
16272;SDS011;8244;50.044;9.006;2023-04-29T08:03:04;9.32;;;5.65;;
16272;SDS011;8244;50.044;9.006;2023-04-29T08:08:05;7.43;;;5.20;;
16272;SDS011;8244;50.044;9.006;2023-04-29T08:13:08;7.00;;;5.05;;
16272;SDS011;8244;50.044;9.006;2023-04-29T08:18:10;6.35;;;4.25;;
16272;SDS011;8244;50.044;9.006;2023-04-29T08:23:11;6.40;;;4.22;;
16272;SDS011;8244;50.044;9.006;2023-04-29T08:28:14;6.95;;;4.15;;
16272;SDS011;8244;50.044;9.006;2023-04-29T08:33:16;5.68;;;3.85;;
16272;SDS011;8244;50.044;9.006;2023-04-29T08:38:18;5.85;;;3.47;;
16272;SDS011;8244;50.044;9.006;2023-04-29T08:43:21;3.67;;;2.75;;
16272;SDS011;8244;50.044;9.006;2023-04-29T08:48:22;2.90;;;2.60;;
16272;SDS011;8244;50.044;9.006;2023-04-29T08:53:25;5.00;;;3.20;;
16272;SDS011;8244;50.044;9.006;2023-04-29T08:58:28;4.82;;;3.55;;
16272;SDS011;8244;50.044;9.006;2023-04-29T09:03:36;6.22;;;3.70;;
16272;SDS011;8244;50.044;9.006;2023-04-29T09:08:45;6.38;;;3.78;;
16272;SDS011;8244;50.044;9.006;2023-04-29T09:13:48;6.38;;;4.32;;
16272;SDS011;8244;50.044;9.006;2023-04-29T09:18:50;6.60;;;4.10;;
16272;SDS011;8244;50.044;9.006;2023-04-29T09:23:54;6.85;;;4.32;;
16272;SDS011;8244;50.044;9.006;2023-04-29T09:29:07;7.15;;;4.50;;
16272;SDS011;8244;50.044;9.006;2023-04-29T09:34:10;8.07;;;5.03;;
16272;SDS011;8244;50.044;9.006;2023-04-29T09:39:13;7.15;;;4.50;;
16272;SDS011;8244;50.044;9.006;2023-04-29T09:44:18;8.60;;;4.72;;
16272;SDS011;8244;50.044;9.006;2023-04-29T09:49:21;5.38;;;4.10;;
16272;SDS011;8244;50.044;9.006;2023-04-29T09:54:25;7.78;;;5.25;;
16272;SDS011;8244;50.044;9.006;2023-04-29T09:59:29;6.95;;;4.68;;
16272;SDS011;8244;50.044;9.006;2023-04-29T10:04:33;8.38;;;4.85;;
16272;SDS011;8244;50.044;9.006;2023-04-29T10:09:38;8.65;;;4.43;;
16272;SDS011;8244;50.044;9.006;2023-04-29T10:14:42;7.30;;;4.85;;
16272;SDS011;8244;50.044;9.006;2023-04-29T10:19:51;8.35;;;4.97;;
16272;SDS011;8244;50.044;9.006;2023-04-29T10:24:58;7.00;;;4.53;;
16272;SDS011;8244;50.044;9.006;2023-04-29T10:30:03;10.23;;;5.18;;
16272;SDS011;8244;50.044;9.006;2023-04-29T10:35:10;9.32;;;5.25;;
16272;SDS011;8244;50.044;9.006;2023-04-29T10:40:14;9.07;;;5.50;;
16272;SDS011;8244;50.044;9.006;2023-04-29T10:45:24;9.13;;;5.40;;
16272;SDS011;8244;50.044;9.006;2023-04-29T10:50:29;7.72;;;5.10;;
16272;SDS011;8244;50.044;9.006;2023-04-29T10:55:34;8.20;;;4.65;;
16272;SDS011;8244;50.044;9.006;2023-04-29T11:00:37;7.60;;;4.68;;
16272;SDS011;8244;50.044;9.006;2023-04-29T11:05:39;6.28;;;4.30;;
16272;SDS011;8244;50.044;9.006;2023-04-29T11:10:41;7.30;;;4.25;;
16272;SDS011;8244;50.044;9.006;2023-04-29T11:15:44;7.68;;;4.80;;
16272;SDS011;8244;50.044;9.006;2023-04-29T11:26:13;5.22;;;3.83;;
16272;SDS011;8244;50.044;9.006;2023-04-29T11:31:16;6.20;;;3.88;;
16272;SDS011;8244;50.044;9.006;2023-04-29T11:36:18;5.43;;;3.47;;
16272;SDS011;8244;50.044;9.006;2023-04-29T11:41:20;5.00;;;3.78;;
16272;SDS011;8244;50.044;9.006;2023-04-29T11:46:24;5.18;;;3.63;;
16272;SDS011;8244;50.044;9.006;2023-04-29T11:51:27;3.67;;;3.17;;
16272;SDS011;8244;50.044;9.006;2023-04-29T11:56:29;4.45;;;3.33;;
16272;SDS011;8244;50.044;9.006;2023-04-29T12:01:32;3.40;;;2.80;;
16272;SDS011;8244;50.044;9.006;2023-04-29T12:06:35;3.90;;;2.85;;
16272;SDS011;8244;50.044;9.006;2023-04-29T12:11:37;2.75;;;2.47;;
16272;SDS011;8244;50.044;9.006;2023-04-29T12:16:40;4.60;;;2.67;;
16272;SDS011;8244;50.044;9.006;2023-04-29T12:21:48;2.95;;;2.40;;
16272;SDS011;8244;50.044;9.006;2023-04-29T12:26:51;2.75;;;2.17;;
16272;SDS011;8244;50.044;9.006;2023-04-29T12:31:55;4.03;;;2.28;;
16272;SDS011;8244;50.044;9.006;2023-04-29T12:36:58;3.08;;;2.08;;
16272;SDS011;8244;50.044;9.006;2023-04-29T12:42:00;2.63;;;2.38;;
16272;SDS011;8244;50.044;9.006;2023-04-29T12:47:08;3.13;;;2.58;;
16272;SDS011;8244;50.044;9.006;2023-04-29T12:52:10;3.40;;;2.58;;
16272;SDS011;8244;50.044;9.006;2023-04-29T12:57:12;2.42;;;2.10;;
16272;SDS011;8244;50.044;9.006;2023-04-29T13:02:15;3.08;;;2.03;;
16272;SDS011;8244;50.044;9.006;2023-04-29T13:07:17;3.63;;;2.60;;
16272;SDS011;8244;50.044;9.006;2023-04-29T13:12:19;3.88;;;2.60;;
16272;SDS011;8244;50.044;9.006;2023-04-29T13:17:22;2.45;;;2.20;;
16272;SDS011;8244;50.044;9.006;2023-04-29T13:22:24;2.70;;;2.20;;
16272;SDS011;8244;50.044;9.006;2023-04-29T13:27:26;2.17;;;1.98;;
16272;SDS011;8244;50.044;9.006;2023-04-29T13:32:29;2.10;;;1.90;;
16272;SDS011;8244;50.044;9.006;2023-04-29T13:37:31;1.73;;;1.60;;
16272;SDS011;8244;50.044;9.006;2023-04-29T13:42:33;2.03;;;1.50;;
16272;SDS011;8244;50.044;9.006;2023-04-29T13:47:37;2.22;;;2.03;;
16272;SDS011;8244;50.044;9.006;2023-04-29T13:52:38;3.38;;;1.80;;
16272;SDS011;8244;50.044;9.006;2023-04-29T13:57:40;1.90;;;1.70;;
16272;SDS011;8244;50.044;9.006;2023-04-29T14:02:43;2.20;;;1.83;;
16272;SDS011;8244;50.044;9.006;2023-04-29T14:07:45;2.38;;;2.13;;
16272;SDS011;8244;50.044;9.006;2023-04-29T14:12:47;3.22;;;2.10;;
16272;SDS011;8244;50.044;9.006;2023-04-29T14:17:50;2.97;;;2.20;;
16272;SDS011;8244;50.044;9.006;2023-04-29T14:22:52;2.33;;;1.98;;
16272;SDS011;8244;50.044;9.006;2023-04-29T14:27:54;2.47;;;1.80;;
16272;SDS011;8244;50.044;9.006;2023-04-29T14:32:57;2.10;;;1.90;;
16272;SDS011;8244;50.044;9.006;2023-04-29T14:37:58;2.38;;;1.90;;
16272;SDS011;8244;50.044;9.006;2023-04-29T14:43:00;2.05;;;1.85;;
16272;SDS011;8244;50.044;9.006;2023-04-29T14:48:04;3.95;;;2.00;;
16272;SDS011;8244;50.044;9.006;2023-04-29T14:53:07;1.70;;;1.60;;
16272;SDS011;8244;50.044;9.006;2023-04-29T14:58:09;1.70;;;1.60;;
16272;SDS011;8244;50.044;9.006;2023-04-29T15:03:12;2.60;;;1.90;;
16272;SDS011;8244;50.044;9.006;2023-04-29T15:08:14;2.75;;;2.20;;
16272;SDS011;8244;50.044;9.006;2023-04-29T15:13:16;1.80;;;1.70;;
16272;SDS011;8244;50.044;9.006;2023-04-29T15:18:19;4.40;;;1.60;;
16272;SDS011;8244;50.044;9.006;2023-04-29T15:23:22;2.70;;;1.48;;
16272;SDS011;8244;50.044;9.006;2023-04-29T15:28:24;4.03;;;1.50;;
16272;SDS011;8244;50.044;9.006;2023-04-29T15:33:27;1.60;;;1.10;;
16272;SDS011;8244;50.044;9.006;2023-04-29T15:38:29;1.38;;;1.27;;
16272;SDS011;8244;50.044;9.006;2023-04-29T15:43:31;1.15;;;1.13;;
16272;SDS011;8244;50.044;9.006;2023-04-29T15:48:34;1.83;;;1.20;;
16272;SDS011;8244;50.044;9.006;2023-04-29T15:53:36;1.20;;;1.17;;
16272;SDS011;8244;50.044;9.006;2023-04-29T15:58:37;1.92;;;1.50;;
16272;SDS011;8244;50.044;9.006;2023-04-29T16:03:40;3.35;;;2.38;;
16272;SDS011;8244;50.044;9.006;2023-04-29T16:08:42;6.18;;;2.97;;
16272;SDS011;8244;50.044;9.006;2023-04-29T16:13:44;3.70;;;3.15;;
16272;SDS011;8244;50.044;9.006;2023-04-29T16:18:47;4.40;;;3.05;;
16272;SDS011;8244;50.044;9.006;2023-04-29T16:23:49;5.35;;;3.15;;
16272;SDS011;8244;50.044;9.006;2023-04-29T16:28:51;7.80;;;3.55;;
16272;SDS011;8244;50.044;9.006;2023-04-29T16:33:54;5.40;;;3.30;;
16272;SDS011;8244;50.044;9.006;2023-04-29T16:38:57;4.43;;;3.50;;
16272;SDS011;8244;50.044;9.006;2023-04-29T16:43:58;5.50;;;3.47;;
16272;SDS011;8244;50.044;9.006;2023-04-29T16:49:01;6.25;;;3.20;;
16272;SDS011;8244;50.044;9.006;2023-04-29T16:54:03;5.07;;;3.47;;
16272;SDS011;8244;50.044;9.006;2023-04-29T16:59:07;6.30;;;3.70;;
16272;SDS011;8244;50.044;9.006;2023-04-29T17:04:11;5.97;;;4.18;;
16272;SDS011;8244;50.044;9.006;2023-04-29T17:09:13;5.75;;;4.20;;
16272;SDS011;8244;50.044;9.006;2023-04-29T17:14:15;6.68;;;4.65;;
16272;SDS011;8244;50.044;9.006;2023-04-29T17:19:18;5.53;;;3.72;;
16272;SDS011;8244;50.044;9.006;2023-04-29T17:24:20;7.95;;;4.82;;
16272;SDS011;8244;50.044;9.006;2023-04-29T17:29:24;10.27;;;6.20;;
16272;SDS011;8244;50.044;9.006;2023-04-29T17:34:29;8.90;;;6.20;;
16272;SDS011;8244;50.044;9.006;2023-04-29T17:39:33;8.95;;;5.80;;
16272;SDS011;8244;50.044;9.006;2023-04-29T17:44:34;10.93;;;6.25;;
16272;SDS011;8244;50.044;9.006;2023-04-29T17:49:38;11.07;;;6.53;;
16272;SDS011;8244;50.044;9.006;2023-04-29T17:54:40;8.85;;;6.05;;
16272;SDS011;8244;50.044;9.006;2023-04-29T17:59:42;8.88;;;5.72;;
16272;SDS011;8244;50.044;9.006;2023-04-29T18:04:45;10.25;;;6.00;;
16272;SDS011;8244;50.044;9.006;2023-04-29T18:09:46;8.40;;;5.68;;
16272;SDS011;8244;50.044;9.006;2023-04-29T18:14:48;8.30;;;5.78;;
16272;SDS011;8244;50.044;9.006;2023-04-29T18:19:52;8.57;;;5.68;;
16272;SDS011;8244;50.044;9.006;2023-04-29T18:24:53;10.55;;;6.20;;
16272;SDS011;8244;50.044;9.006;2023-04-29T18:29:55;10.43;;;5.65;;
16272;SDS011;8244;50.044;9.006;2023-04-29T18:34:58;9.35;;;5.60;;
16272;SDS011;8244;50.044;9.006;2023-04-29T18:40:00;10.10;;;5.47;;
16272;SDS011;8244;50.044;9.006;2023-04-29T18:45:01;10.57;;;5.97;;
16272;SDS011;8244;50.044;9.006;2023-04-29T18:50:05;10.13;;;6.18;;
16272;SDS011;8244;50.044;9.006;2023-04-29T18:55:08;9.38;;;5.90;;
16272;SDS011;8244;50.044;9.006;2023-04-29T19:00:10;8.65;;;5.53;;
16272;SDS011;8244;50.044;9.006;2023-04-29T19:05:14;9.85;;;6.25;;
16272;SDS011;8244;50.044;9.006;2023-04-29T19:10:16;8.88;;;6.00;;
16272;SDS011;8244;50.044;9.006;2023-04-29T19:15:18;8.45;;;5.30;;
16272;SDS011;8244;50.044;9.006;2023-04-29T19:20:21;7.22;;;5.53;;
16272;SDS011;8244;50.044;9.006;2023-04-29T19:25:23;8.02;;;5.60;;
16272;SDS011;8244;50.044;9.006;2023-04-29T19:30:25;9.23;;;5.50;;
16272;SDS011;8244;50.044;9.006;2023-04-29T19:35:28;10.15;;;5.90;;
16272;SDS011;8244;50.044;9.006;2023-04-29T19:40:30;9.65;;;5.65;;
16272;SDS011;8244;50.044;9.006;2023-04-29T19:45:32;10.23;;;5.95;;
16272;SDS011;8244;50.044;9.006;2023-04-29T19:50:35;9.05;;;5.88;;
16272;SDS011;8244;50.044;9.006;2023-04-29T19:55:38;10.40;;;5.90;;
16272;SDS011;8244;50.044;9.006;2023-04-29T20:00:40;9.15;;;6.05;;
16272;SDS011;8244;50.044;9.006;2023-04-29T20:05:44;11.85;;;6.20;;
16272;SDS011;8244;50.044;9.006;2023-04-29T20:10:46;9.85;;;6.40;;
16272;SDS011;8244;50.044;9.006;2023-04-29T20:15:48;9.82;;;6.18;;
16272;SDS011;8244;50.044;9.006;2023-04-29T20:20:51;9.52;;;6.47;;
16272;SDS011;8244;50.044;9.006;2023-04-29T20:25:52;10.10;;;6.18;;
16272;SDS011;8244;50.044;9.006;2023-04-29T20:30:55;9.70;;;6.47;;
16272;SDS011;8244;50.044;9.006;2023-04-29T20:35:58;11.20;;;6.82;;
16272;SDS011;8244;50.044;9.006;2023-04-29T20:41:05;9.55;;;6.65;;
16272;SDS011;8244;50.044;9.006;2023-04-29T20:46:07;10.15;;;6.60;;
16272;SDS011;8244;50.044;9.006;2023-04-29T20:51:10;9.20;;;6.40;;
16272;SDS011;8244;50.044;9.006;2023-04-29T20:56:12;12.63;;;7.57;;
16272;SDS011;8244;50.044;9.006;2023-04-29T21:01:15;11.52;;;6.68;;
16272;SDS011;8244;50.044;9.006;2023-04-29T21:06:19;10.80;;;6.95;;
16272;SDS011;8244;50.044;9.006;2023-04-29T21:11:20;8.70;;;6.05;;
16272;SDS011;8244;50.044;9.006;2023-04-29T21:16:22;9.63;;;5.95;;
16272;SDS011;8244;50.044;9.006;2023-04-29T21:21:25;10.15;;;6.03;;
16272;SDS011;8244;50.044;9.006;2023-04-29T21:26:27;9.48;;;5.82;;
16272;SDS011;8244;50.044;9.006;2023-04-29T21:31:29;12.00;;;7.57;;
16272;SDS011;8244;50.044;9.006;2023-04-29T21:36:32;8.38;;;5.80;;
16272;SDS011;8244;50.044;9.006;2023-04-29T21:41:35;10.00;;;6.63;;
16272;SDS011;8244;50.044;9.006;2023-04-29T21:46:38;10.98;;;6.60;;
16272;SDS011;8244;50.044;9.006;2023-04-29T21:51:41;12.27;;;7.00;;
16272;SDS011;8244;50.044;9.006;2023-04-29T21:56:43;10.23;;;6.78;;
16272;SDS011;8244;50.044;9.006;2023-04-29T22:01:45;8.88;;;6.45;;
16272;SDS011;8244;50.044;9.006;2023-04-29T22:07:00;10.82;;;7.45;;
16272;SDS011;8244;50.044;9.006;2023-04-29T22:12:02;12.25;;;7.47;;
16272;SDS011;8244;50.044;9.006;2023-04-29T22:17:04;9.95;;;7.05;;
16272;SDS011;8244;50.044;9.006;2023-04-29T22:22:06;11.30;;;7.53;;
16272;SDS011;8244;50.044;9.006;2023-04-29T22:27:08;10.13;;;7.57;;
16272;SDS011;8244;50.044;9.006;2023-04-29T22:32:10;12.15;;;7.72;;
16272;SDS011;8244;50.044;9.006;2023-04-29T22:37:13;10.75;;;7.88;;
16272;SDS011;8244;50.044;9.006;2023-04-29T22:42:15;14.45;;;8.20;;
16272;SDS011;8244;50.044;9.006;2023-04-29T22:47:17;10.85;;;7.93;;
16272;SDS011;8244;50.044;9.006;2023-04-29T22:52:20;11.98;;;8.25;;
16272;SDS011;8244;50.044;9.006;2023-04-29T22:57:21;11.90;;;7.97;;
16272;SDS011;8244;50.044;9.006;2023-04-29T23:02:23;11.57;;;8.07;;
16272;SDS011;8244;50.044;9.006;2023-04-29T23:07:29;13.55;;;8.80;;
16272;SDS011;8244;50.044;9.006;2023-04-29T23:12:31;12.52;;;8.35;;
16272;SDS011;8244;50.044;9.006;2023-04-29T23:17:32;13.95;;;9.40;;
16272;SDS011;8244;50.044;9.006;2023-04-29T23:22:37;11.95;;;8.73;;
16272;SDS011;8244;50.044;9.006;2023-04-29T23:27:39;14.00;;;9.20;;
16272;SDS011;8244;50.044;9.006;2023-04-29T23:32:41;12.77;;;8.90;;
16272;SDS011;8244;50.044;9.006;2023-04-29T23:37:44;13.63;;;9.57;;
16272;SDS011;8244;50.044;9.006;2023-04-29T23:42:45;14.20;;;9.10;;
16272;SDS011;8244;50.044;9.006;2023-04-29T23:47:47;14.15;;;9.30;;
16272;SDS011;8244;50.044;9.006;2023-04-29T23:52:50;15.40;;;9.43;;
16272;SDS011;8244;50.044;9.006;2023-04-29T23:57:52;13.02;;;9.68;;
